Flight Track Log - Related Links

Times and Time Zones

All times are in EDT time to prevent confusion due to time zone crossing. See the N724AE flight status page for this flight to view local times or setup timezone preferences in your user account.

Time Position Orientation Groundspeed Altitude Reporting Facility
EDT Latitude Longitude Course Direction KTS MPH feet Rate Location/Type
Sat 09:52:53 AM 32.8500 -97.0333 North 168 193 3,900  Level Dallas / Fort Worth TRACON
Sat 09:53:47 AM 32.8000 -97.0000 151° Southeast 244 281 5,500 2,202 Climbing Dallas / Fort Worth TRACON
Sat 09:54:00 AM 32.8505 -96.8000 North  Level FlightAware Approximate
Sat 09:54:42 AM 32.7667 -96.9333 121° Southeast 295 339 7,900  Level Dallas / Fort Worth TRACON
Sat 09:55:00 AM 32.9701 -96.8000 North  Level FlightAware Approximate
Sat 09:56:00 AM 33.0897 -96.8019 356° North  Level FlightAware Approximate
Sat 09:56:51 AM 32.9514 -96.8836 13° North 325 374 11,600  Level Fort Worth Center
Sat 09:57:00 AM 33.2091 -96.8119 356° North  Level FlightAware Approximate
Sat 09:57:51 AM 33.0536 -96.8731 North 355 409 12,800  Level Fort Worth Center
Sat 09:58:00 AM 33.3286 -96.8167 North  Level FlightAware Approximate
Sat 09:58:51 AM 33.1619 -96.8600 North 371 427 14,200  Level Fort Worth Center
Sat 09:59:51 AM 33.2683 -96.8444 North 387 445 15,900 1,550 Climbing Fort Worth Center
Sat 10:00:51 AM 33.3769 -96.8339 North 387 445 17,300 1,500 Climbing Fort Worth Center
Sat 10:01:51 AM 33.4831 -96.8008 15° North 387 445 18,900 1,500 Climbing Fort Worth Center
Sat 10:02:51 AM 33.5850 -96.7378 27° Northeast 401 461 20,300 1,450 Climbing Fort Worth Center
Sat 10:03:51 AM 33.6744 -96.6747 30° Northeast 414 476 21,800 1,550 Climbing Fort Worth Center
Sat 10:04:51 AM 33.7867 -96.5936 31° Northeast 430 495 23,400 1,500 Climbing Fort Worth Center
Sat 10:05:51 AM 33.8844 -96.5278 29° Northeast 430 495 24,800 1,500 Climbing Fort Worth Center
Sat 10:06:51 AM 33.9881 -96.4567 30° Northeast 430 495 26,400 1,450 Climbing Fort Worth Center
Sat 10:07:51 AM 34.0817 -96.3903 30° Northeast 425 489 27,700 1,500 Climbing Fort Worth Center
Sat 10:08:51 AM 34.1872 -96.3114 32° Northeast 419 482 29,400 1,650 Climbing Fort Worth Center
Sat 10:09:51 AM 34.2889 -96.2397 30° Northeast 419 482 31,000 1,550 Climbing Fort Worth Center
Sat 10:10:51 AM 34.3903 -96.1628 32° Northeast 419 482 32,500 1,500 Climbing Fort Worth Center
Sat 10:11:51 AM 34.4939 -96.0933 29° Northeast 424 488 34,000 1,500 Climbing Fort Worth Center
Sat 10:12:51 AM 34.5933 -96.0186 32° Northeast 424 488 35,500 1,450 Climbing Fort Worth Center
Sat 10:13:51 AM 34.6947 -95.9461 30° Northeast 424 488 36,900 750 Climbing Fort Worth Center
Sat 10:14:51 AM 34.7981 -95.8711 31° Northeast 424 488 37,000 50 Climbing Fort Worth Center
Sat 10:15:51 AM 34.9100 -95.7956 29° Northeast 434 499 37,000  Level Fort Worth Center
Sat 10:16:51 AM 35.0172 -95.7175 31° Northeast 439 505 37,000  Level Fort Worth Center
Sat 10:17:51 AM 35.1247 -95.6392 31° Northeast 439 505 37,000  Level Fort Worth Center
Sat 10:19:29 AM 35.2900 -95.5106 32° Northeast 448 516 37,000  Level Kansas City Center
Sat 10:19:44 AM 35.3381 -95.4831 25° Northeast 444 511 37,000  Level Memphis Center
Sat 10:20:44 AM 35.4433 -95.4031 32° Northeast 444 511 37,000  Level Memphis Center
Sat 10:21:44 AM 35.5508 -95.3253 30° Northeast 444 511 37,000  Level Memphis Center
Sat 10:22:36 AM 35.6331 -95.2586 33° Northeast 450 518 37,000  Level Kansas City Center
Sat 10:23:36 AM 35.7400 -95.1797 31° Northeast 449 517 37,000  Level Kansas City Center
Sat 10:24:37 AM 35.8461 -95.0994 32° Northeast 449 517 37,000  Level Kansas City Center
Sat 10:25:44 AM 35.9783 -95.0047 30° Northeast 444 511 37,000  Level Memphis Center
Sat 10:27:42 AM 36.1872 -94.8431 32° Northeast 450 518 37,000  Level Kansas City Center
Sat 10:28:43 AM 36.2944 -94.7631 31° Northeast 450 518 37,000  Level Kansas City Center
Sat 10:29:46 AM 36.4003 -94.6819 32° Northeast 451 519 37,000  Level Kansas City Center
Sat 10:30:47 AM 36.5075 -94.6006 31° Northeast 451 519 37,000  Level Kansas City Center
Sat 10:31:48 AM 36.6147 -94.5181 32° Northeast 453 521 37,000  Level Kansas City Center
Sat 10:32:48 AM 36.7217 -94.4369 31° Northeast 453 521 37,000  Level Kansas City Center
Sat 10:33:52 AM 36.8258 -94.3575 31° Northeast 451 519 37,000  Level Kansas City Center
Sat 10:34:52 AM 36.9339 -94.2717 32° Northeast 449 517 37,000  Level Kansas City Center
Sat 10:35:53 AM 37.0631 -94.1717 32° Northeast 453 521 37,000  Level Kansas City Center
Sat 10:36:56 AM 37.1586 -94.0992 31° Northeast 453 521 37,000  Level Kansas City Center
Sat 10:37:58 AM 37.2664 -94.0139 32° Northeast 454 522 37,000  Level Kansas City Center
Sat 10:38:59 AM 37.3742 -93.9300 32° Northeast 454 522 37,000  Level Kansas City Center
Sat 10:40:00 AM 37.5050 -93.8278 32° Northeast 457 526 37,000  Level Kansas City Center
Sat 10:41:01 AM 37.6136 -93.7433 32° Northeast 457 526 37,000  Level Kansas City Center
Sat 10:42:04 AM 37.7228 -93.6572 32° Northeast 459 528 37,000  Level Kansas City Center
Sat 10:43:05 AM 37.8317 -93.5711 32° Northeast 459 528 37,000  Level Kansas City Center
Sat 10:44:05 AM 37.9417 -93.4833 32° Northeast 462 532 37,000  Level Kansas City Center
Sat 10:45:08 AM 38.0514 -93.3956 32° Northeast 463 533 37,000  Level Kansas City Center
Sat 10:46:09 AM 38.1600 -93.3078 32° Northeast 461 531 37,000  Level Kansas City Center
Sat 10:47:11 AM 38.2708 -93.2181 32° Northeast 464 534 37,000  Level Kansas City Center
Sat 10:48:11 AM 38.3814 -93.1294 32° Northeast 465 535 37,000  Level Kansas City Center
Sat 10:49:15 AM 38.4944 -93.0358 33° Northeast 474 545 37,000  Level Kansas City Center
Sat 10:50:16 AM 38.6050 -92.9467 32° Northeast 470 541 37,000  Level Kansas City Center
Sat 10:51:17 AM 38.7153 -92.8553 33° Northeast 468 539 37,000  Level Kansas City Center
Sat 10:52:20 AM 38.8481 -92.7464 33° Northeast 469 540 37,000  Level Kansas City Center
Sat 10:53:20 AM 38.9575 -92.6558 33° Northeast 466 536 37,000  Level Kansas City Center
Sat 10:54:21 AM 39.0675 -92.5656 32° Northeast 465 535 37,000  Level Kansas City Center
Sat 10:55:25 AM 39.1769 -92.4733 33° Northeast 466 536 37,000  Level Kansas City Center
Sat 10:56:26 AM 39.2875 -92.3850 32° Northeast 463 533 37,000  Level Kansas City Center
Sat 10:57:27 AM 39.3978 -92.2928 33° Northeast 468 539 37,000  Level Kansas City Center
Sat 10:58:29 AM 39.5061 -92.2000 33° Northeast 470 541 37,000  Level Kansas City Center
Sat 10:59:30 AM 39.6114 -92.1128 33° Northeast 463 533 37,000  Level Kansas City Center
Sat 11:00:33 AM 39.7400 -92.0036 33° Northeast 466 536 37,000 -683 Level Kansas City Center
Sat 11:01:33 AM 39.8478 -91.9106 34° Northeast 469 540 35,600 -1,438 Descending Kansas City Center
Sat 11:02:34 AM 39.9525 -91.8222 33° Northeast 461 531 34,100 -1,500 Descending Kansas City Center
Sat 11:03:37 AM 40.0572 -91.7319 33° Northeast 457 526 32,500 -1,790 Descending Kansas City Center
Sat 11:04:38 AM 40.1606 -91.6433 33° Northeast 452 520 30,400 -2,323 Descending Kansas City Center
Sat 11:05:41 AM 40.2869 -91.5350 33° Northeast 455 524 27,700 -2,371 Descending Kansas City Center
Sat 11:06:42 AM 40.3911 -91.4439 34° Northeast 457 526 25,500 -2,124 Descending Kansas City Center
Sat 11:07:34 AM 40.4747 -91.3719 33° Northeast 453 521 23,700 -2,263 Descending Chicago Center
Sat 11:08:36 AM 40.5875 -91.2728 34° Northeast 448 516 21,200 -2,293 Descending Chicago Center
Sat 11:09:37 AM 40.6894 -91.1831 34° Northeast 440 506 19,000 -2,244 Descending Chicago Center
Sat 11:10:39 AM 40.7903 -91.0953 33° Northeast 433 498 16,600 -2,244 Descending Chicago Center
Sat 11:11:40 AM 40.8889 -91.0067 34° Northeast 429 494 14,400 -2,244 Descending Chicago Center
Sat 11:12:42 AM 40.9864 -90.9194 34° Northeast 423 487 12,000 -1,659 Descending Chicago Center
Sat 11:13:43 AM 41.0792 -90.8542 28° Northeast 379 436 11,000 -1,024 Descending Chicago Center
Sat 11:14:45 AM 41.1664 -90.8006 25° Northeast 349 402 9,900 -1,756 Descending Chicago Center
Sat 11:15:46 AM 41.2639 -90.7408 25° Northeast 324 373 7,400 -2,195 Descending Chicago Center
Sat 11:16:48 AM 41.3453 -90.6883 26° Northeast 325 374 5,400 -1,935 Descending Chicago Center

Login

Don't have an account? Register now (free) for customized features, flight alerts, and more!